createdAt,value
2019-05-15T00:06:33.451Z,2.20
2019-05-15T00:17:33.303Z,1.50
2019-05-15T00:28:33.200Z,1.50
2019-05-15T00:39:33.060Z,2.10
2019-05-15T00:50:32.981Z,2.00
2019-05-15T01:01:32.851Z,2.00
2019-05-15T01:12:32.683Z,2.40
2019-05-15T01:23:32.588Z,1.80
2019-05-15T01:34:32.465Z,2.70
2019-05-15T01:45:32.315Z,3.10
2019-05-15T01:56:32.214Z,2.60
2019-05-15T02:07:32.100Z,2.10
2019-05-15T02:18:31.947Z,1.80
2019-05-15T02:29:31.829Z,2.40
2019-05-15T02:40:31.711Z,4.20
2019-05-15T02:51:31.585Z,2.60
2019-05-15T03:02:31.464Z,2.80
2019-05-15T03:13:31.491Z,2.70
2019-05-15T03:24:31.232Z,2.20
2019-05-15T03:35:33.249Z,3.40
2019-05-15T03:46:30.974Z,3.40
2019-05-15T03:57:30.867Z,3.80
2019-05-15T04:08:30.730Z,3.00
2019-05-15T04:19:30.608Z,2.80
2019-05-15T04:30:31.035Z,2.80
2019-05-15T04:41:30.652Z,2.00
2019-05-15T04:52:30.755Z,4.10
2019-05-15T05:03:34.155Z,3.10
2019-05-15T05:14:29.999Z,3.00
2019-05-15T05:25:29.874Z,2.30
2019-05-15T05:36:29.770Z,2.20
2019-05-15T05:47:29.660Z,2.70
2019-05-15T05:58:29.843Z,2.10
2019-05-15T06:09:29.386Z,1.90
2019-05-15T06:20:29.266Z,2.80
2019-05-15T06:31:30.141Z,1.90
2019-05-15T06:42:29.021Z,2.00
2019-05-15T06:53:29.163Z,1.80
2019-05-15T07:04:28.912Z,2.30
2019-05-15T07:15:28.680Z,1.90
2019-05-15T07:26:29.108Z,1.10
2019-05-15T07:37:29.009Z,1.30
2019-05-15T07:48:29.105Z,2.50
2019-05-15T07:59:28.159Z,1.60
2019-05-15T08:10:28.509Z,1.40
2019-05-15T08:21:29.236Z,2.00
2019-05-15T08:32:28.031Z,1.80
2019-05-15T08:43:29.153Z,1.40
2019-05-15T08:54:28.981Z,1.60
2019-05-15T09:05:28.431Z,1.30
2019-05-15T09:16:28.081Z,1.80
2019-05-15T09:27:27.901Z,1.10
2019-05-15T09:38:28.984Z,1.70
2019-05-15T09:49:28.566Z,1.50
2019-05-15T10:00:29.074Z,1.40
2019-05-15T10:11:28.923Z,1.80
2019-05-15T10:22:28.302Z,1.80
2019-05-15T10:33:26.454Z,1.80
2019-05-15T10:44:28.410Z,1.90
2019-05-15T10:55:26.243Z,1.60
2019-05-15T11:06:26.080Z,1.80
2019-05-15T11:17:25.953Z,1.90
2019-05-15T11:28:31.705Z,1.10
2019-05-15T11:39:25.730Z,1.20
2019-05-15T11:50:29.095Z,1.10
2019-05-15T12:01:28.621Z,1.30
2019-05-15T12:02:20.463Z,1.20
2019-05-15T12:03:24.404Z,1.60
2019-05-15T12:14:25.341Z,1.50
2019-05-15T12:15:20.363Z,1.50
2019-05-15T12:16:20.340Z,1.50
2019-05-15T12:27:25.197Z,1.10
2019-05-15T12:28:20.189Z,1.20
2019-05-15T12:29:20.182Z,1.60
2019-05-15T13:04:24.795Z,1.20
2019-05-15T13:15:24.668Z,1.80
2019-05-15T13:26:27.056Z,1.50
2019-05-15T13:37:27.423Z,1.40
2019-05-15T13:48:24.304Z,1.70
2019-05-15T13:59:24.184Z,1.20
2019-05-15T14:10:24.060Z,2.30
2019-05-15T14:21:23.939Z,1.40
2019-05-15T14:32:35.472Z,1.90
2019-05-15T14:43:23.710Z,1.50
2019-05-15T14:54:23.573Z,1.20
2019-05-15T15:05:23.478Z,0.90
2019-05-15T15:16:23.330Z,1.40
2019-05-15T15:27:23.207Z,1.00
2019-05-15T15:38:38.192Z,1.00
2019-05-15T15:49:23.012Z,1.50
2019-05-15T16:00:22.851Z,1.30
2019-05-15T16:11:22.729Z,1.40
2019-05-15T16:22:22.600Z,1.40
2019-05-15T16:33:22.475Z,1.30
2019-05-15T16:44:22.356Z,1.50
2019-05-15T16:55:22.267Z,1.40
2019-05-15T17:06:22.157Z,1.30
2019-05-15T17:17:21.983Z,1.10
2019-05-15T17:28:21.862Z,1.20
2019-05-15T17:39:33.777Z,0.90
2019-05-15T17:50:21.619Z,1.30
2019-05-15T18:01:21.494Z,1.00
2019-05-15T18:12:21.388Z,1.30
2019-05-15T18:23:23.590Z,1.80
2019-05-15T18:34:21.125Z,1.10
2019-05-15T18:45:21.003Z,0.90
2019-05-15T18:56:20.885Z,1.40
2019-05-15T19:07:20.751Z,1.50
2019-05-15T19:18:20.640Z,1.20
2019-05-15T19:29:20.515Z,1.30
2019-05-15T19:40:20.395Z,1.00
2019-05-15T19:51:20.263Z,1.10
2019-05-15T20:02:20.145Z,1.20
2019-05-15T20:13:20.017Z,1.30
2019-05-15T20:24:19.929Z,1.30
2019-05-15T20:35:20.187Z,1.50
2019-05-15T20:46:19.718Z,1.40
2019-05-15T20:57:19.549Z,1.30
2019-05-15T21:08:19.414Z,1.10
2019-05-15T21:19:20.277Z,1.80
2019-05-15T21:30:19.280Z,1.30
2019-05-15T21:41:19.076Z,1.20
2019-05-15T21:52:20.707Z,1.50
2019-05-15T22:03:19.774Z,1.50
2019-05-15T22:14:18.673Z,1.10
2019-05-15T22:25:19.148Z,1.10
2019-05-15T22:36:18.958Z,1.00
2019-05-15T22:47:19.911Z,1.60
2019-05-15T22:58:18.189Z,2.00
2019-05-15T23:09:18.062Z,1.90
2019-05-15T23:20:17.939Z,1.40
2019-05-15T23:31:18.886Z,1.30
2019-05-15T23:42:18.454Z,1.50
2019-05-15T23:53:19.711Z,1.60
